This is the latest recevied weather packets stored in our database for station/object KR4ELZ. If no packets are shown the sender has not sent any weather packets the latest 10 day(s).
| Time | Temp. | Humidity | Pressure | Rain* | Wind** | Luminosity | Snow |
|---|---|---|---|---|---|---|---|
| 1777819623 | 16.67° C | 53% | 1022.3 hPa | 0 mm | - | 463 W/m² | - |
| 1777819321 | 16.11° C | 54% | 1022.5 hPa | 0 mm | - | 451 W/m² | - |
| 1777819017 | 17.22° C | 55% | 1022.5 hPa | 0 mm | - | 438 W/m² | - |
| 1777818715 | 16.11° C | 57% | 1022.4 hPa | 0 mm | - | 424 W/m² | - |
| 1777818411 | 16.11° C | 57% | 1022.4 hPa | 0 mm | - | 412 W/m² | - |
| 1777818108 | 15.56° C | 60% | 1022.4 hPa | 0 mm | - | 399 W/m² | - |
| 1777817804 | 15.56° C | 61% | 1022.5 hPa | 0 mm | - | 363 W/m² | - |
| 1777817502 | 15.56° C | 62% | 1022.1 hPa | 0 mm | - | 375 W/m² | - |
| 1777817197 | 15° C | 61% | 1022.3 hPa | 0 mm | - | 361 W/m² | - |
| 1777816896 | 14.44° C | 67% | 1022.3 hPa | 0 mm | - | 346 W/m² | - |
| 1777816592 | 14.44° C | 67% | 1022.4 hPa | 0 mm | - | 332 W/m² | - |
| 1777816289 | 14.44° C | 71% | 1022.4 hPa | 0 mm | - | 318 W/m² | - |
| 1777815987 | 13.89° C | 68% | 1022.2 hPa | 0 mm | - | 282 W/m² | - |
| 1777815684 | 13.89° C | 73% | 1022.2 hPa | 0 mm | - | 290 W/m² | - |
| 1777815381 | 13.33° C | 75% | 1022.2 hPa | 0 mm | - | 276 W/m² | - |
| 1777815078 | 12.78° C | 74% | 1022.2 hPa | 0 mm | - | 91 W/m² | - |
| 1777814774 | 12.22° C | 77% | 1022.3 hPa | 0 mm | - | 246 W/m² | - |
| 1777814471 | 12.78° C | 78% | 1022.1 hPa | 0 mm | - | 236 W/m² | - |
| 1777814168 | 11.11° C | 83% | 1022 hPa | 0 mm | - | 207 W/m² | - |
| 1777813865 | 11.67° C | 79% | 1022.1 hPa | 0 mm | - | 34 W/m² | - |
| 1777813563 | 11.11° C | 83% | 1022.2 hPa | 0 mm | - | 33 W/m² | - |
| 1777813261 | 10° C | 87% | 1022.2 hPa | 0 mm | - | 47 W/m² | - |
| 1777812958 | 8.89° C | 91% | 1022.1 hPa | 0 mm | - | 68 W/m² | - |
| 1777812655 | 8.33° C | 93% | 1022 hPa | 0 mm | - | 91 W/m² | - |
| 1777812351 | 7.78° C | 96% | 1022.1 hPa | 0 mm | - | 76 W/m² | - |
* Rain latest hour (hover to see other rain measurements)
** Current wind speed in m/s (hover to see current wind gust speed)